CheckWX is a tool to help pilots better visualize weather data.  It is not intended as a substitute for an official pre-flight weather briefing.

05:37:02 UTC

KRSN METAR
Ruston Regional Airport
Ruston, Louisiana, USA
Current

22 mins ago

KRSN 040515Z AUTO 00000KT 7SM SCT002 22/21 A2998 RMK AO2 T02150206
Observed
Jul-4 @ 05:15 UTC
Visibility
7 SM
Flight Rules
VFR
Cloud Levels
  • Scattered at 200' AGL
Temperature
22°C / 72°F
Dewpoint
21°C / 70°F
Humidity
94%
Altimeter
29.98" Hg
Pressure
1015.22 hPa
Previous

42 mins ago

KRSN 040455Z AUTO 00000KT 7SM CLR 22/21 A2999 RMK AO2 T02150206
Observed
Jul-4 @ 04:55 UTC
Visibility
7 SM
Flight Rules
VFR
Cloud Levels
  • Clear skies
Temperature
22°C / 72°F
Dewpoint
21°C / 70°F
Humidity
94%
Altimeter
29.99" Hg
Pressure
1015.62 hPa
Previous

1 hour ago

KRSN 040435Z AUTO 00000KT 7SM CLR 22/21 A2998 RMK AO2 T02170207
Observed
Jul-4 @ 04:35 UTC
Visibility
7 SM
Flight Rules
VFR
Cloud Levels
  • Clear skies
Temperature
22°C / 72°F
Dewpoint
21°C / 70°F
Humidity
94%
Altimeter
29.98" Hg
Pressure
1015.22 hPa